sensor_id;sensor_type;location;lat;lon;timestamp;P1;durP1;ratioP1;P2;durP2;ratioP2
69334;SDS011;56477;52.742;15.242;2023-03-11T00:00:44;32.33;;;10.85;;
69334;SDS011;56477;52.742;15.242;2023-03-11T00:03:23;33.07;;;10.80;;
69334;SDS011;56477;52.742;15.242;2023-03-11T00:05:50;27.00;;;9.40;;
69334;SDS011;56477;52.742;15.242;2023-03-11T00:08:18;32.53;;;9.52;;
69334;SDS011;56477;52.742;15.242;2023-03-11T00:10:46;28.00;;;9.10;;
69334;SDS011;56477;52.742;15.242;2023-03-11T00:13:15;21.77;;;8.25;;
69334;SDS011;56477;52.742;15.242;2023-03-11T00:15:42;25.20;;;9.00;;
69334;SDS011;56477;52.742;15.242;2023-03-11T00:18:11;23.85;;;8.50;;
69334;SDS011;56477;52.742;15.242;2023-03-11T00:20:38;22.48;;;8.73;;
69334;SDS011;56477;52.742;15.242;2023-03-11T00:23:06;23.35;;;7.65;;
69334;SDS011;56477;52.742;15.242;2023-03-11T00:25:33;22.10;;;7.28;;
69334;SDS011;56477;52.742;15.242;2023-03-11T00:28:02;19.73;;;7.10;;
69334;SDS011;56477;52.742;15.242;2023-03-11T00:30:29;20.25;;;7.28;;
69334;SDS011;56477;52.742;15.242;2023-03-11T00:32:55;21.70;;;8.25;;
69334;SDS011;56477;52.742;15.242;2023-03-11T00:35:26;22.30;;;7.95;;
69334;SDS011;56477;52.742;15.242;2023-03-11T00:37:55;20.85;;;7.30;;
69334;SDS011;56477;52.742;15.242;2023-03-11T00:40:23;23.20;;;7.27;;
69334;SDS011;56477;52.742;15.242;2023-03-11T00:42:51;19.92;;;7.72;;
69334;SDS011;56477;52.742;15.242;2023-03-11T00:45:17;19.35;;;7.32;;
69334;SDS011;56477;52.742;15.242;2023-03-11T00:47:43;25.95;;;9.13;;
69334;SDS011;56477;52.742;15.242;2023-03-11T00:50:09;25.87;;;8.93;;
69334;SDS011;56477;52.742;15.242;2023-03-11T00:52:40;20.80;;;8.02;;
69334;SDS011;56477;52.742;15.242;2023-03-11T00:55:06;27.33;;;9.43;;
69334;SDS011;56477;52.742;15.242;2023-03-11T00:57:32;22.80;;;8.63;;
69334;SDS011;56477;52.742;15.242;2023-03-11T00:59:58;22.27;;;8.35;;
69334;SDS011;56477;52.742;15.242;2023-03-11T01:02:24;22.80;;;8.45;;
69334;SDS011;56477;52.742;15.242;2023-03-11T01:04:53;23.00;;;8.97;;
69334;SDS011;56477;52.742;15.242;2023-03-11T01:07:22;27.10;;;7.97;;
69334;SDS011;56477;52.742;15.242;2023-03-11T01:09:48;25.25;;;8.75;;
69334;SDS011;56477;52.742;15.242;2023-03-11T01:12:14;21.93;;;7.77;;
69334;SDS011;56477;52.742;15.242;2023-03-11T01:14:40;21.23;;;7.70;;
69334;SDS011;56477;52.742;15.242;2023-03-11T01:17:06;16.48;;;6.13;;
69334;SDS011;56477;52.742;15.242;2023-03-11T01:19:32;18.30;;;6.83;;
69334;SDS011;56477;52.742;15.242;2023-03-11T01:21:58;18.13;;;6.90;;
69334;SDS011;56477;52.742;15.242;2023-03-11T01:24:24;18.75;;;6.57;;
69334;SDS011;56477;52.742;15.242;2023-03-11T01:26:50;16.23;;;5.90;;
69334;SDS011;56477;52.742;15.242;2023-03-11T01:29:16;20.35;;;6.05;;
69334;SDS011;56477;52.742;15.242;2023-03-11T01:31:42;16.58;;;6.00;;
69334;SDS011;56477;52.742;15.242;2023-03-11T01:34:07;14.60;;;5.53;;
69334;SDS011;56477;52.742;15.242;2023-03-11T01:36:33;17.88;;;5.88;;
69334;SDS011;56477;52.742;15.242;2023-03-11T01:38:59;15.23;;;5.82;;
69334;SDS011;56477;52.742;15.242;2023-03-11T01:41:25;16.70;;;5.60;;
69334;SDS011;56477;52.742;15.242;2023-03-11T01:43:52;19.30;;;6.47;;
69334;SDS011;56477;52.742;15.242;2023-03-11T01:46:26;18.15;;;5.97;;
69334;SDS011;56477;52.742;15.242;2023-03-11T01:48:56;20.00;;;6.75;;
69334;SDS011;56477;52.742;15.242;2023-03-11T01:51:34;17.20;;;6.07;;
69334;SDS011;56477;52.742;15.242;2023-03-11T01:54:04;19.13;;;6.32;;
69334;SDS011;56477;52.742;15.242;2023-03-11T01:56:35;20.25;;;7.00;;
69334;SDS011;56477;52.742;15.242;2023-03-11T01:59:03;20.00;;;6.32;;
69334;SDS011;56477;52.742;15.242;2023-03-11T02:01:30;16.65;;;5.97;;
69334;SDS011;56477;52.742;15.242;2023-03-11T02:03:57;20.43;;;6.77;;
69334;SDS011;56477;52.742;15.242;2023-03-11T02:06:23;13.38;;;4.10;;
69334;SDS011;56477;52.742;15.242;2023-03-11T02:08:50;17.75;;;7.00;;
69334;SDS011;56477;52.742;15.242;2023-03-11T02:11:23;17.70;;;6.65;;
69334;SDS011;56477;52.742;15.242;2023-03-11T02:13:53;16.55;;;5.53;;
69334;SDS011;56477;52.742;15.242;2023-03-11T02:16:21;17.97;;;5.97;;
69334;SDS011;56477;52.742;15.242;2023-03-11T02:18:47;17.27;;;6.90;;
69334;SDS011;56477;52.742;15.242;2023-03-11T02:21:24;19.88;;;7.00;;
69334;SDS011;56477;52.742;15.242;2023-03-11T02:29:14;16.95;;;6.72;;
69334;SDS011;56477;52.742;15.242;2023-03-11T02:31:41;18.98;;;5.90;;
69334;SDS011;56477;52.742;15.242;2023-03-11T02:34:08;16.33;;;5.80;;
69334;SDS011;56477;52.742;15.242;2023-03-11T02:36:58;14.73;;;5.22;;
69334;SDS011;56477;52.742;15.242;2023-03-11T02:39:31;17.70;;;6.93;;
69334;SDS011;56477;52.742;15.242;2023-03-11T02:42:01;17.63;;;6.97;;
69334;SDS011;56477;52.742;15.242;2023-03-11T02:44:31;20.30;;;7.15;;
69334;SDS011;56477;52.742;15.242;2023-03-11T02:46:58;17.30;;;6.18;;
69334;SDS011;56477;52.742;15.242;2023-03-11T02:49:24;16.30;;;5.82;;
69334;SDS011;56477;52.742;15.242;2023-03-11T02:51:51;17.80;;;6.70;;
69334;SDS011;56477;52.742;15.242;2023-03-11T02:54:17;16.70;;;5.93;;
69334;SDS011;56477;52.742;15.242;2023-03-11T02:56:43;15.10;;;5.97;;
69334;SDS011;56477;52.742;15.242;2023-03-11T02:59:09;19.53;;;7.10;;
69334;SDS011;56477;52.742;15.242;2023-03-11T03:01:35;15.55;;;5.60;;
69334;SDS011;56477;52.742;15.242;2023-03-11T03:04:01;14.32;;;5.47;;
69334;SDS011;56477;52.742;15.242;2023-03-11T03:06:27;21.05;;;7.47;;
69334;SDS011;56477;52.742;15.242;2023-03-11T03:08:53;21.80;;;7.70;;
69334;SDS011;56477;52.742;15.242;2023-03-11T03:11:19;20.10;;;6.30;;
69334;SDS011;56477;52.742;15.242;2023-03-11T03:13:45;22.05;;;7.45;;
69334;SDS011;56477;52.742;15.242;2023-03-11T03:16:11;20.40;;;6.90;;
69334;SDS011;56477;52.742;15.242;2023-03-11T03:18:37;21.85;;;7.32;;
69334;SDS011;56477;52.742;15.242;2023-03-11T03:21:03;13.60;;;4.50;;
69334;SDS011;56477;52.742;15.242;2023-03-11T03:23:30;21.17;;;7.45;;
69334;SDS011;56477;52.742;15.242;2023-03-11T03:26:00;22.50;;;8.10;;
69334;SDS011;56477;52.742;15.242;2023-03-11T03:28:26;22.02;;;7.50;;
69334;SDS011;56477;52.742;15.242;2023-03-11T03:30:52;17.00;;;5.50;;
69334;SDS011;56477;52.742;15.242;2023-03-11T03:33:18;23.85;;;7.28;;
69334;SDS011;56477;52.742;15.242;2023-03-11T03:35:44;27.10;;;8.60;;
69334;SDS011;56477;52.742;15.242;2023-03-11T03:38:11;26.48;;;8.38;;
69334;SDS011;56477;52.742;15.242;2023-03-11T03:40:38;26.48;;;8.80;;
69334;SDS011;56477;52.742;15.242;2023-03-11T03:43:04;29.35;;;9.43;;
69334;SDS011;56477;52.742;15.242;2023-03-11T03:45:30;24.77;;;7.80;;
69334;SDS011;56477;52.742;15.242;2023-03-11T03:47:56;26.03;;;8.53;;
69334;SDS011;56477;52.742;15.242;2023-03-11T03:50:22;30.58;;;10.07;;
69334;SDS011;56477;52.742;15.242;2023-03-11T03:52:48;25.65;;;8.85;;
69334;SDS011;56477;52.742;15.242;2023-03-11T03:55:14;22.57;;;7.70;;
69334;SDS011;56477;52.742;15.242;2023-03-11T03:57:40;32.85;;;11.38;;
69334;SDS011;56477;52.742;15.242;2023-03-11T04:00:06;30.33;;;11.30;;
69334;SDS011;56477;52.742;15.242;2023-03-11T04:02:36;31.40;;;11.13;;
69334;SDS011;56477;52.742;15.242;2023-03-11T04:05:02;32.13;;;11.88;;
69334;SDS011;56477;52.742;15.242;2023-03-11T04:07:28;40.20;;;13.00;;
69334;SDS011;56477;52.742;15.242;2023-03-11T04:09:54;36.10;;;12.53;;
69334;SDS011;56477;52.742;15.242;2023-03-11T04:12:20;31.48;;;12.20;;
69334;SDS011;56477;52.742;15.242;2023-03-11T04:14:46;26.33;;;9.63;;
69334;SDS011;56477;52.742;15.242;2023-03-11T04:17:13;30.60;;;10.38;;
69334;SDS011;56477;52.742;15.242;2023-03-11T04:19:42;34.90;;;12.10;;
69334;SDS011;56477;52.742;15.242;2023-03-11T04:22:08;31.13;;;12.48;;
69334;SDS011;56477;52.742;15.242;2023-03-11T04:24:33;31.70;;;11.15;;
69334;SDS011;56477;52.742;15.242;2023-03-11T04:26:59;30.85;;;11.68;;
69334;SDS011;56477;52.742;15.242;2023-03-11T04:29:25;33.50;;;10.63;;
69334;SDS011;56477;52.742;15.242;2023-03-11T04:31:51;19.50;;;6.72;;
69334;SDS011;56477;52.742;15.242;2023-03-11T04:34:17;28.58;;;10.50;;
69334;SDS011;56477;52.742;15.242;2023-03-11T04:36:43;27.87;;;10.40;;
69334;SDS011;56477;52.742;15.242;2023-03-11T04:39:09;26.40;;;9.93;;
69334;SDS011;56477;52.742;15.242;2023-03-11T04:41:35;18.92;;;7.53;;
69334;SDS011;56477;52.742;15.242;2023-03-11T04:44:01;19.75;;;7.57;;
69334;SDS011;56477;52.742;15.242;2023-03-11T04:46:27;22.37;;;8.03;;
69334;SDS011;56477;52.742;15.242;2023-03-11T04:48:53;13.75;;;5.43;;
69334;SDS011;56477;52.742;15.242;2023-03-11T04:51:19;24.00;;;9.27;;
69334;SDS011;56477;52.742;15.242;2023-03-11T04:53:45;20.27;;;6.30;;
69334;SDS011;56477;52.742;15.242;2023-03-11T04:56:11;18.85;;;6.57;;
69334;SDS011;56477;52.742;15.242;2023-03-11T04:58:36;18.50;;;6.57;;
69334;SDS011;56477;52.742;15.242;2023-03-11T05:01:03;19.52;;;6.60;;
69334;SDS011;56477;52.742;15.242;2023-03-11T05:03:28;16.58;;;6.78;;
69334;SDS011;56477;52.742;15.242;2023-03-11T05:05:55;18.60;;;6.75;;
69334;SDS011;56477;52.742;15.242;2023-03-11T05:08:24;14.32;;;6.13;;
69334;SDS011;56477;52.742;15.242;2023-03-11T05:10:51;16.43;;;6.23;;
69334;SDS011;56477;52.742;15.242;2023-03-11T05:13:20;15.90;;;5.90;;
69334;SDS011;56477;52.742;15.242;2023-03-11T05:15:46;16.23;;;7.00;;
69334;SDS011;56477;52.742;15.242;2023-03-11T05:18:12;12.55;;;4.63;;
69334;SDS011;56477;52.742;15.242;2023-03-11T05:20:39;12.57;;;5.13;;
69334;SDS011;56477;52.742;15.242;2023-03-11T05:23:05;13.97;;;5.47;;
69334;SDS011;56477;52.742;15.242;2023-03-11T05:25:31;11.30;;;4.97;;
69334;SDS011;56477;52.742;15.242;2023-03-11T05:27:57;10.63;;;4.47;;
69334;SDS011;56477;52.742;15.242;2023-03-11T05:30:23;18.63;;;6.78;;
69334;SDS011;56477;52.742;15.242;2023-03-11T05:32:49;19.10;;;7.03;;
69334;SDS011;56477;52.742;15.242;2023-03-11T05:35:15;11.40;;;4.13;;
69334;SDS011;56477;52.742;15.242;2023-03-11T05:37:41;12.70;;;5.55;;
69334;SDS011;56477;52.742;15.242;2023-03-11T05:40:09;13.98;;;5.47;;
69334;SDS011;56477;52.742;15.242;2023-03-11T05:42:36;14.27;;;6.60;;
69334;SDS011;56477;52.742;15.242;2023-03-11T05:45:02;12.35;;;5.20;;
69334;SDS011;56477;52.742;15.242;2023-03-11T05:47:28;7.53;;;2.83;;
69334;SDS011;56477;52.742;15.242;2023-03-11T05:49:55;11.80;;;4.40;;
69334;SDS011;56477;52.742;15.242;2023-03-11T05:52:20;10.83;;;4.83;;
69334;SDS011;56477;52.742;15.242;2023-03-11T05:54:50;11.05;;;3.97;;
69334;SDS011;56477;52.742;15.242;2023-03-11T05:57:16;9.63;;;3.40;;
69334;SDS011;56477;52.742;15.242;2023-03-11T05:59:43;11.55;;;5.28;;
69334;SDS011;56477;52.742;15.242;2023-03-11T06:02:09;11.20;;;4.90;;
69334;SDS011;56477;52.742;15.242;2023-03-11T06:04:35;16.25;;;5.55;;
69334;SDS011;56477;52.742;15.242;2023-03-11T06:07:01;15.57;;;6.05;;
69334;SDS011;56477;52.742;15.242;2023-03-11T06:09:27;14.98;;;6.20;;
69334;SDS011;56477;52.742;15.242;2023-03-11T06:11:53;14.70;;;5.27;;
69334;SDS011;56477;52.742;15.242;2023-03-11T06:14:19;13.20;;;4.63;;
69334;SDS011;56477;52.742;15.242;2023-03-11T06:16:45;13.45;;;4.78;;
69334;SDS011;56477;52.742;15.242;2023-03-11T06:19:11;13.60;;;4.43;;
69334;SDS011;56477;52.742;15.242;2023-03-11T06:21:37;14.77;;;4.80;;
69334;SDS011;56477;52.742;15.242;2023-03-11T06:24:03;15.55;;;5.30;;
69334;SDS011;56477;52.742;15.242;2023-03-11T06:26:29;10.15;;;3.72;;
69334;SDS011;56477;52.742;15.242;2023-03-11T06:28:55;10.40;;;4.18;;
69334;SDS011;56477;52.742;15.242;2023-03-11T06:31:22;11.00;;;4.07;;
69334;SDS011;56477;52.742;15.242;2023-03-11T06:33:53;13.02;;;4.90;;
69334;SDS011;56477;52.742;15.242;2023-03-11T06:36:23;8.32;;;3.05;;
69334;SDS011;56477;52.742;15.242;2023-03-11T06:38:50;8.52;;;3.40;;
69334;SDS011;56477;52.742;15.242;2023-03-11T06:41:17;7.90;;;3.17;;
69334;SDS011;56477;52.742;15.242;2023-03-11T06:43:43;8.15;;;2.72;;
69334;SDS011;56477;52.742;15.242;2023-03-11T06:46:13;10.50;;;4.03;;
69334;SDS011;56477;52.742;15.242;2023-03-11T06:48:44;6.80;;;2.17;;
69334;SDS011;56477;52.742;15.242;2023-03-11T06:51:10;11.10;;;3.50;;
69334;SDS011;56477;52.742;15.242;2023-03-11T06:53:37;6.30;;;2.40;;
69334;SDS011;56477;52.742;15.242;2023-03-11T06:56:05;12.82;;;4.20;;
69334;SDS011;56477;52.742;15.242;2023-03-11T06:58:39;9.20;;;3.92;;
69334;SDS011;56477;52.742;15.242;2023-03-11T07:01:10;10.75;;;3.60;;
69334;SDS011;56477;52.742;15.242;2023-03-11T07:03:44;9.07;;;3.83;;
69334;SDS011;56477;52.742;15.242;2023-03-11T07:06:12;8.13;;;3.03;;
69334;SDS011;56477;52.742;15.242;2023-03-11T07:08:39;14.00;;;4.03;;
69334;SDS011;56477;52.742;15.242;2023-03-11T07:11:06;12.65;;;4.28;;
69334;SDS011;56477;52.742;15.242;2023-03-11T07:13:35;10.93;;;4.40;;
69334;SDS011;56477;52.742;15.242;2023-03-11T07:18:35;9.35;;;3.83;;
69334;SDS011;56477;52.742;15.242;2023-03-11T07:21:03;13.13;;;3.88;;
69334;SDS011;56477;52.742;15.242;2023-03-11T07:23:30;6.30;;;2.35;;
69334;SDS011;56477;52.742;15.242;2023-03-11T07:25:56;8.57;;;2.85;;
69334;SDS011;56477;52.742;15.242;2023-03-11T07:28:23;11.37;;;3.43;;
69334;SDS011;56477;52.742;15.242;2023-03-11T07:30:49;11.23;;;4.15;;
69334;SDS011;56477;52.742;15.242;2023-03-11T07:33:16;11.25;;;3.83;;
69334;SDS011;56477;52.742;15.242;2023-03-11T07:35:42;15.43;;;4.35;;
69334;SDS011;56477;52.742;15.242;2023-03-11T07:38:09;7.93;;;3.20;;
69334;SDS011;56477;52.742;15.242;2023-03-11T07:40:35;17.23;;;6.27;;
69334;SDS011;56477;52.742;15.242;2023-03-11T07:43:01;14.63;;;5.75;;
69334;SDS011;56477;52.742;15.242;2023-03-11T07:45:27;13.60;;;5.88;;
69334;SDS011;56477;52.742;15.242;2023-03-11T07:47:53;19.88;;;7.00;;
69334;SDS011;56477;52.742;15.242;2023-03-11T07:50:19;17.80;;;6.83;;
69334;SDS011;56477;52.742;15.242;2023-03-11T07:52:48;12.65;;;5.10;;
69334;SDS011;56477;52.742;15.242;2023-03-11T07:55:14;12.48;;;4.97;;
69334;SDS011;56477;52.742;15.242;2023-03-11T07:57:41;14.52;;;5.90;;
69334;SDS011;56477;52.742;15.242;2023-03-11T08:00:07;15.18;;;5.80;;
69334;SDS011;56477;52.742;15.242;2023-03-11T08:02:34;12.20;;;4.73;;
69334;SDS011;56477;52.742;15.242;2023-03-11T08:05:00;7.82;;;3.40;;
69334;SDS011;56477;52.742;15.242;2023-03-11T08:07:26;11.20;;;3.85;;
69334;SDS011;56477;52.742;15.242;2023-03-11T08:09:55;13.75;;;5.03;;
69334;SDS011;56477;52.742;15.242;2023-03-11T08:12:21;13.70;;;5.30;;
69334;SDS011;56477;52.742;15.242;2023-03-11T08:14:47;11.27;;;4.40;;
69334;SDS011;56477;52.742;15.242;2023-03-11T08:17:13;11.45;;;4.05;;
69334;SDS011;56477;52.742;15.242;2023-03-11T08:19:39;11.53;;;4.23;;
69334;SDS011;56477;52.742;15.242;2023-03-11T08:22:05;9.60;;;3.10;;
69334;SDS011;56477;52.742;15.242;2023-03-11T08:24:32;9.13;;;3.05;;
69334;SDS011;56477;52.742;15.242;2023-03-11T08:26:58;9.27;;;3.73;;
69334;SDS011;56477;52.742;15.242;2023-03-11T08:29:24;7.40;;;2.70;;
69334;SDS011;56477;52.742;15.242;2023-03-11T08:31:50;9.63;;;3.10;;
69334;SDS011;56477;52.742;15.242;2023-03-11T08:34:16;10.77;;;2.70;;
69334;SDS011;56477;52.742;15.242;2023-03-11T08:36:42;7.60;;;3.60;;
69334;SDS011;56477;52.742;15.242;2023-03-11T08:39:08;5.15;;;2.28;;
69334;SDS011;56477;52.742;15.242;2023-03-11T08:41:34;8.00;;;2.60;;
69334;SDS011;56477;52.742;15.242;2023-03-11T08:44:00;9.33;;;4.17;;
69334;SDS011;56477;52.742;15.242;2023-03-11T08:46:27;7.88;;;2.53;;
69334;SDS011;56477;52.742;15.242;2023-03-11T08:48:58;11.45;;;4.43;;
69334;SDS011;56477;52.742;15.242;2023-03-11T08:51:24;12.25;;;4.03;;
69334;SDS011;56477;52.742;15.242;2023-03-11T08:53:51;8.75;;;3.20;;
69334;SDS011;56477;52.742;15.242;2023-03-11T08:56:18;9.93;;;4.37;;
69334;SDS011;56477;52.742;15.242;2023-03-11T08:58:44;12.90;;;4.20;;
69334;SDS011;56477;52.742;15.242;2023-03-11T09:01:11;9.57;;;3.42;;
69334;SDS011;56477;52.742;15.242;2023-03-11T09:03:38;10.48;;;3.60;;
69334;SDS011;56477;52.742;15.242;2023-03-11T09:06:09;12.35;;;3.42;;
69334;SDS011;56477;52.742;15.242;2023-03-11T09:08:38;6.23;;;2.53;;
69334;SDS011;56477;52.742;15.242;2023-03-11T09:11:04;9.13;;;3.80;;
69334;SDS011;56477;52.742;15.242;2023-03-11T09:13:30;8.15;;;3.25;;
69334;SDS011;56477;52.742;15.242;2023-03-11T09:15:56;11.93;;;4.25;;
69334;SDS011;56477;52.742;15.242;2023-03-11T09:18:22;10.80;;;4.10;;
69334;SDS011;56477;52.742;15.242;2023-03-11T09:20:48;13.48;;;4.82;;
69334;SDS011;56477;52.742;15.242;2023-03-11T09:23:14;8.93;;;3.38;;
69334;SDS011;56477;52.742;15.242;2023-03-11T09:25:42;7.35;;;3.25;;
69334;SDS011;56477;52.742;15.242;2023-03-11T09:28:08;12.50;;;4.07;;
69334;SDS011;56477;52.742;15.242;2023-03-11T09:30:34;10.02;;;2.72;;
69334;SDS011;56477;52.742;15.242;2023-03-11T09:33:00;8.98;;;2.92;;
69334;SDS011;56477;52.742;15.242;2023-03-11T09:35:27;10.00;;;3.15;;
69334;SDS011;56477;52.742;15.242;2023-03-11T09:37:52;6.60;;;2.20;;
69334;SDS011;56477;52.742;15.242;2023-03-11T09:40:19;5.10;;;2.20;;
69334;SDS011;56477;52.742;15.242;2023-03-11T09:48:54;5.13;;;1.90;;
69334;SDS011;56477;52.742;15.242;2023-03-11T09:51:37;5.28;;;2.40;;
69334;SDS011;56477;52.742;15.242;2023-03-11T09:54:26;6.25;;;2.53;;
69334;SDS011;56477;52.742;15.242;2023-03-11T09:56:55;8.55;;;2.53;;
69334;SDS011;56477;52.742;15.242;2023-03-11T09:59:30;7.15;;;2.15;;
69334;SDS011;56477;52.742;15.242;2023-03-11T10:01:57;10.67;;;3.03;;
69334;SDS011;56477;52.742;15.242;2023-03-11T10:04:38;5.18;;;1.40;;
69334;SDS011;56477;52.742;15.242;2023-03-11T10:07:11;4.78;;;2.22;;
69334;SDS011;56477;52.742;15.242;2023-03-11T10:09:53;4.72;;;1.65;;
69334;SDS011;56477;52.742;15.242;2023-03-11T10:15:11;5.53;;;1.87;;
69334;SDS011;56477;52.742;15.242;2023-03-11T10:26:28;8.15;;;2.97;;
69334;SDS011;56477;52.742;15.242;2023-03-11T10:29:08;8.67;;;2.80;;
69334;SDS011;56477;52.742;15.242;2023-03-11T10:32:04;4.57;;;1.60;;
69334;SDS011;56477;52.742;15.242;2023-03-11T10:37:26;8.50;;;2.42;;
69334;SDS011;56477;52.742;15.242;2023-03-11T10:42:44;9.87;;;2.53;;
69334;SDS011;56477;52.742;15.242;2023-03-11T10:45:12;7.38;;;2.78;;
69334;SDS011;56477;52.742;15.242;2023-03-11T10:47:38;5.65;;;2.47;;
69334;SDS011;56477;52.742;15.242;2023-03-11T10:50:04;5.38;;;2.30;;
69334;SDS011;56477;52.742;15.242;2023-03-11T10:52:35;5.72;;;2.45;;
69334;SDS011;56477;52.742;15.242;2023-03-11T10:55:10;4.27;;;1.50;;
69334;SDS011;56477;52.742;15.242;2023-03-11T10:57:44;5.93;;;2.50;;
69334;SDS011;56477;52.742;15.242;2023-03-11T11:00:14;3.65;;;1.58;;
69334;SDS011;56477;52.742;15.242;2023-03-11T11:02:54;6.45;;;1.98;;
69334;SDS011;56477;52.742;15.242;2023-03-11T11:05:27;5.80;;;2.65;;
69334;SDS011;56477;52.742;15.242;2023-03-11T11:08:04;6.90;;;2.37;;
69334;SDS011;56477;52.742;15.242;2023-03-11T11:10:47;9.00;;;2.75;;
69334;SDS011;56477;52.742;15.242;2023-03-11T11:13:25;6.10;;;2.00;;
69334;SDS011;56477;52.742;15.242;2023-03-11T11:18:31;3.37;;;1.73;;
69334;SDS011;56477;52.742;15.242;2023-03-11T11:21:07;5.38;;;1.52;;
69334;SDS011;56477;52.742;15.242;2023-03-11T11:23:40;4.97;;;2.15;;
69334;SDS011;56477;52.742;15.242;2023-03-11T11:28:43;5.15;;;2.70;;
69334;SDS011;56477;52.742;15.242;2023-03-11T11:31:22;4.47;;;1.77;;
69334;SDS011;56477;52.742;15.242;2023-03-11T11:36:17;3.78;;;1.88;;
69334;SDS011;56477;52.742;15.242;2023-03-11T11:38:50;3.53;;;1.70;;
69334;SDS011;56477;52.742;15.242;2023-03-11T11:41:19;5.88;;;2.20;;
69334;SDS011;56477;52.742;15.242;2023-03-11T11:43:59;7.80;;;3.07;;
69334;SDS011;56477;52.742;15.242;2023-03-11T11:46:30;5.35;;;2.58;;
69334;SDS011;56477;52.742;15.242;2023-03-11T11:49:47;5.95;;;2.55;;
69334;SDS011;56477;52.742;15.242;2023-03-11T11:52:02;4.60;;;1.42;;
69334;SDS011;56477;52.742;15.242;2023-03-11T11:54:41;8.45;;;1.90;;
69334;SDS011;56477;52.742;15.242;2023-03-11T11:57:30;4.03;;;1.60;;
69334;SDS011;56477;52.742;15.242;2023-03-11T11:59:56;4.95;;;1.80;;
69334;SDS011;56477;52.742;15.242;2023-03-11T12:10:17;4.10;;;1.67;;
69334;SDS011;56477;52.742;15.242;2023-03-11T12:18:43;5.20;;;1.33;;
69334;SDS011;56477;52.742;15.242;2023-03-11T12:26:38;5.63;;;2.20;;
69334;SDS011;56477;52.742;15.242;2023-03-11T12:29:07;3.80;;;1.67;;
69334;SDS011;56477;52.742;15.242;2023-03-11T12:31:41;4.80;;;2.38;;
69334;SDS011;56477;52.742;15.242;2023-03-11T12:34:09;5.45;;;2.30;;
69334;SDS011;56477;52.742;15.242;2023-03-11T12:36:39;3.07;;;1.23;;
69334;SDS011;56477;52.742;15.242;2023-03-11T12:39:07;5.03;;;1.88;;
69334;SDS011;56477;52.742;15.242;2023-03-11T12:41:43;5.10;;;1.63;;
69334;SDS011;56477;52.742;15.242;2023-03-11T12:49:22;4.17;;;1.47;;
69334;SDS011;56477;52.742;15.242;2023-03-11T12:51:59;5.97;;;1.90;;
69334;SDS011;56477;52.742;15.242;2023-03-11T12:57:42;5.88;;;2.63;;
69334;SDS011;56477;52.742;15.242;2023-03-11T13:07:50;4.75;;;2.35;;
69334;SDS011;56477;52.742;15.242;2023-03-11T13:15:48;3.97;;;1.50;;
69334;SDS011;56477;52.742;15.242;2023-03-11T13:18:24;7.85;;;2.58;;
69334;SDS011;56477;52.742;15.242;2023-03-11T13:20:54;5.75;;;2.47;;
69334;SDS011;56477;52.742;15.242;2023-03-11T13:23:34;5.38;;;2.10;;
69334;SDS011;56477;52.742;15.242;2023-03-11T13:37:07;6.35;;;2.70;;
69334;SDS011;56477;52.742;15.242;2023-03-11T13:40:16;8.15;;;2.95;;
69334;SDS011;56477;52.742;15.242;2023-03-11T13:42:48;4.50;;;1.40;;
69334;SDS011;56477;52.742;15.242;2023-03-11T13:48:46;5.90;;;2.30;;
69334;SDS011;56477;52.742;15.242;2023-03-11T13:51:03;3.83;;;1.77;;
69334;SDS011;56477;52.742;15.242;2023-03-11T13:53:34;5.15;;;2.15;;
69334;SDS011;56477;52.742;15.242;2023-03-11T13:56:17;2.53;;;1.00;;
69334;SDS011;56477;52.742;15.242;2023-03-11T13:58:50;3.35;;;1.15;;
69334;SDS011;56477;52.742;15.242;2023-03-11T14:01:16;2.60;;;1.08;;
69334;SDS011;56477;52.742;15.242;2023-03-11T14:03:44;4.47;;;1.73;;
69334;SDS011;56477;52.742;15.242;2023-03-11T14:06:12;4.30;;;1.07;;
69334;SDS011;56477;52.742;15.242;2023-03-11T14:08:41;5.03;;;1.77;;
69334;SDS011;56477;52.742;15.242;2023-03-11T14:19:05;3.67;;;1.73;;
69334;SDS011;56477;52.742;15.242;2023-03-11T14:21:41;3.97;;;1.45;;
69334;SDS011;56477;52.742;15.242;2023-03-11T14:24:13;5.03;;;2.13;;
69334;SDS011;56477;52.742;15.242;2023-03-11T14:26:41;4.60;;;1.85;;
69334;SDS011;56477;52.742;15.242;2023-03-11T14:29:10;3.08;;;1.30;;
69334;SDS011;56477;52.742;15.242;2023-03-11T14:31:42;4.40;;;1.50;;
69334;SDS011;56477;52.742;15.242;2023-03-11T14:36:50;5.32;;;2.25;;
69334;SDS011;56477;52.742;15.242;2023-03-11T14:39:30;5.35;;;1.95;;
69334;SDS011;56477;52.742;15.242;2023-03-11T14:45:03;4.60;;;1.70;;
69334;SDS011;56477;52.742;15.242;2023-03-11T14:50:13;4.32;;;1.50;;
69334;SDS011;56477;52.742;15.242;2023-03-11T14:52:45;3.13;;;1.35;;
69334;SDS011;56477;52.742;15.242;2023-03-11T14:55:17;3.43;;;1.40;;
69334;SDS011;56477;52.742;15.242;2023-03-11T14:57:56;2.78;;;1.38;;
69334;SDS011;56477;52.742;15.242;2023-03-11T15:00:27;5.35;;;1.80;;
69334;SDS011;56477;52.742;15.242;2023-03-11T15:05:46;2.83;;;1.50;;
69334;SDS011;56477;52.742;15.242;2023-03-11T15:08:19;3.47;;;1.10;;
69334;SDS011;56477;52.742;15.242;2023-03-11T15:13:25;3.35;;;1.67;;
69334;SDS011;56477;52.742;15.242;2023-03-11T15:15:55;3.17;;;1.50;;
69334;SDS011;56477;52.742;15.242;2023-03-11T15:18:24;3.28;;;1.10;;
69334;SDS011;56477;52.742;15.242;2023-03-11T15:21:00;4.57;;;1.80;;
69334;SDS011;56477;52.742;15.242;2023-03-11T15:26:33;3.95;;;1.38;;
69334;SDS011;56477;52.742;15.242;2023-03-11T15:29:18;3.00;;;1.20;;
69334;SDS011;56477;52.742;15.242;2023-03-11T15:31:44;3.92;;;1.50;;
69334;SDS011;56477;52.742;15.242;2023-03-11T15:36:44;2.67;;;1.50;;
69334;SDS011;56477;52.742;15.242;2023-03-11T15:41:58;3.65;;;1.77;;
69334;SDS011;56477;52.742;15.242;2023-03-11T15:44:27;6.35;;;2.55;;
69334;SDS011;56477;52.742;15.242;2023-03-11T15:46:54;6.07;;;2.43;;
69334;SDS011;56477;52.742;15.242;2023-03-11T15:49:21;8.48;;;3.08;;
69334;SDS011;56477;52.742;15.242;2023-03-11T15:51:47;5.55;;;2.13;;
69334;SDS011;56477;52.742;15.242;2023-03-11T15:54:13;7.53;;;2.40;;
69334;SDS011;56477;52.742;15.242;2023-03-11T15:56:39;5.13;;;1.67;;
69334;SDS011;56477;52.742;15.242;2023-03-11T15:59:05;5.82;;;2.30;;
69334;SDS011;56477;52.742;15.242;2023-03-11T16:01:31;3.85;;;1.73;;
69334;SDS011;56477;52.742;15.242;2023-03-11T16:03:57;9.00;;;1.80;;
69334;SDS011;56477;52.742;15.242;2023-03-11T16:06:23;6.03;;;2.58;;
69334;SDS011;56477;52.742;15.242;2023-03-11T16:08:49;4.53;;;1.40;;
69334;SDS011;56477;52.742;15.242;2023-03-11T16:11:15;5.28;;;1.70;;
69334;SDS011;56477;52.742;15.242;2023-03-11T16:13:43;4.27;;;1.57;;
69334;SDS011;56477;52.742;15.242;2023-03-11T16:16:15;5.47;;;1.83;;
69334;SDS011;56477;52.742;15.242;2023-03-11T16:18:41;6.10;;;2.50;;
69334;SDS011;56477;52.742;15.242;2023-03-11T16:21:09;4.80;;;1.73;;
69334;SDS011;56477;52.742;15.242;2023-03-11T16:23:40;6.78;;;2.35;;
69334;SDS011;56477;52.742;15.242;2023-03-11T16:26:06;6.10;;;2.10;;
69334;SDS011;56477;52.742;15.242;2023-03-11T16:28:35;4.75;;;1.88;;
69334;SDS011;56477;52.742;15.242;2023-03-11T16:31:01;3.00;;;1.17;;
69334;SDS011;56477;52.742;15.242;2023-03-11T16:33:27;6.47;;;2.47;;
69334;SDS011;56477;52.742;15.242;2023-03-11T16:35:53;3.63;;;1.15;;
69334;SDS011;56477;52.742;15.242;2023-03-11T16:38:19;6.03;;;2.37;;